Time;durP1;ratioP1;P1;durP2;ratioP2;P2;SDS_P1;SDS_P2;PMS_P1;PMS_P2;Temp;Humidity;BMP_temperature;BMP_pressure;BME280_temperature;BME280_humidity;BME280_pressure;Samples;Min_cycle;Max_cycle;Signal;HPM_P1;HPM_P2
2022/06/02 00:01:40;;;;;;;4.53;4.13;;;;;;;9.68;95.87;101281.91;5116440;28;20023;-85
2022/06/02 00:04:48;;;;;;;4.40;4.10;;;;;;;9.64;95.57;101281.91;5099387;28;20045;-84
2022/06/02 00:07:20;;;;;;;4.35;4.10;;;;;;;9.62;95.24;101291.47;5106938;28;20040;-84
2022/06/02 00:10:06;;;;;;;4.93;4.70;;;;;;;9.60;95.25;101293.25;5115871;28;20564;-85
2022/06/02 00:12:37;;;;;;;4.72;4.35;;;;;;;9.57;95.93;101289.75;5100242;28;20046;-85
2022/06/02 00:15:06;;;;;;;5.40;5.07;;;;;;;9.56;95.82;101285.44;5121272;28;20049;-82
2022/06/02 00:17:45;;;;;;;4.50;4.20;;;;;;;9.54;95.76;101288.03;5117596;28;20019;-82
2022/06/02 00:20:30;;;;;;;4.97;4.68;;;;;;;9.52;95.70;101283.72;5116936;28;20019;-85
2022/06/02 00:23:14;;;;;;;;;;;;;;;9.52;96.45;101291.53;5099525;28;20030;-84
2022/06/02 00:26:00;;;;;;;4.40;4.13;;;;;;;9.50;96.13;101294.13;5115182;28;19938;-84
2022/06/02 00:29:00;;;;;;;5.32;5.03;;;;;;;9.49;96.13;101292.41;5097751;28;20408;-84
2022/06/02 00:31:36;;;;;;;5.22;4.93;;;;;;;9.47;96.23;101297.63;5115602;28;20023;-84
2022/06/02 00:34:31;;;;;;;4.85;4.45;;;;;;;9.45;95.82;101299.34;5098658;28;20020;-85
2022/06/02 00:37:03;;;;;;;5.10;4.80;;;;;;;9.44;95.50;101301.97;5097564;28;20027;-86
2022/06/02 00:39:33;;;;;;;5.53;5.13;;;;;;;9.43;95.05;101300.22;5114633;28;20035;-84
2022/06/02 00:42:31;;;;;;;5.15;4.78;;;;;;;9.41;95.08;101301.97;5114481;28;20547;-84
2022/06/02 00:45:10;;;;;;;5.35;5.05;;;;;;;9.40;95.48;101308.06;5114300;28;20031;-85
2022/06/02 00:47:39;;;;;;;4.93;4.63;;;;;;;9.37;95.84;101310.69;5097466;28;20115;-84
2022/06/02 00:50:23;;;;;;;5.50;5.20;;;;;;;9.36;95.18;101314.16;5097785;28;20489;-85
2022/06/02 00:52:59;;;;;;;5.30;5.00;;;;;;;9.35;95.27;101309.81;5114744;28;20030;-85
2022/06/02 00:58:28;;;;;;;5.97;5.57;;;;;;;9.26;95.75;101319.38;5114934;28;20030;-85
2022/06/02 01:01:18;;;;;;;5.40;5.00;;;;;;;9.23;95.71;101321.09;5097120;28;20389;-85
2022/06/02 01:03:47;;;;;;;5.85;5.45;;;;;;;9.23;95.56;101322.00;5097472;28;20056;-84
2022/06/02 01:08:58;;;;;;;6.00;5.68;;;;;;;9.16;95.74;101325.44;5112594;28;20047;-85
2022/06/02 01:11:36;;;;;;;5.97;5.68;;;;;;;9.15;95.06;101331.56;5080130;28;20027;-85
2022/06/02 01:14:20;;;;;;;6.05;5.65;;;;;;;9.17;94.83;101339.38;5080893;28;20507;-85
2022/06/02 01:16:52;;;;;;;5.07;4.78;;;;;;;9.17;95.49;101339.38;5096696;28;20553;-85
2022/06/02 01:19:59;;;;;;;5.80;5.47;;;;;;;9.15;95.30;101339.38;5079955;28;20122;-85
2022/06/02 01:22:42;;;;;;;5.95;5.57;;;;;;;9.17;95.62;101337.63;5097432;28;20019;-85
2022/06/02 01:25:36;;;;;;;6.32;6.03;;;;;;;9.14;95.59;101337.63;5098736;28;20026;-82
2022/06/02 01:28:22;;;;;;;6.40;5.88;;;;;;;9.12;94.96;101332.41;5097332;28;20114;-84
2022/06/02 01:31:12;;;;;;;5.97;5.47;;;;;;;9.11;95.59;101329.81;5097327;28;20027;-85
2022/06/02 01:33:52;;;;;;;6.57;6.05;;;;;;;9.11;94.79;101329.81;5115466;28;20114;-85
2022/06/02 01:36:55;;;;;;;6.38;5.85;;;;;;;9.08;95.09;101329.78;5096438;28;20030;-85
2022/06/02 01:39:48;;;;;;;6.03;5.72;;;;;;;9.07;94.30;101338.50;5096414;28;20475;-84
2022/06/02 01:42:32;;;;;;;5.88;5.50;;;;;;;9.06;94.35;101339.38;5095875;28;20065;-85
2022/06/02 01:45:07;;;;;;;6.38;6.05;;;;;;;9.07;95.07;101343.72;5096330;28;20027;-84
2022/06/02 01:47:38;;;;;;;7.28;6.57;;;;;;;9.07;95.17;101339.34;5078936;28;20481;-85
2022/06/02 01:50:24;;;;;;;6.18;5.82;;;;;;;9.05;94.92;101335.00;5078962;28;20030;-84
2022/06/02 01:53:19;;;;;;;6.97;6.55;;;;;;;9.03;94.65;101337.63;5095315;28;20036;-84
2022/06/02 01:56:20;;;;;;;6.73;6.33;;;;;;;9.03;94.47;101336.75;5081885;28;20028;-85
2022/06/02 01:59:02;;;;;;;5.80;5.50;;;;;;;9.03;94.84;101340.22;5098333;28;20019;-82
2022/06/02 02:02:01;;;;;;;6.88;6.28;;;;;;;9.02;95.14;101345.44;5079014;28;20023;-85
2022/06/02 02:04:29;;;;;;;7.32;6.70;;;;;;;9.01;94.67;101343.69;5091995;28;20042;-84
2022/06/02 02:07:35;;;;;;;7.07;6.40;;;;;;;9.00;94.55;101342.84;5095321;28;20028;-84
2022/06/02 02:10:37;;;;;;;7.22;6.82;;;;;;;9.02;93.80;101353.25;5079490;28;20020;-85
2022/06/02 02:13:27;;;;;;;7.18;6.68;;;;;;;9.00;94.07;101349.78;5095274;28;20027;-85
2022/06/02 02:16:40;;;;;;;6.65;6.35;;;;;;;8.96;94.30;101352.38;5095149;28;20076;-85
2022/06/02 02:19:06;;;;;;;7.50;7.00;;;;;;;8.94;93.88;101353.25;5034436;28;20039;-84
2022/06/02 02:21:40;;;;;;;7.30;6.90;;;;;;;8.93;93.98;101360.19;5095494;28;20024;-84
2022/06/02 02:24:29;;;;;;;7.75;7.25;;;;;;;8.91;94.48;101356.72;5078510;28;20034;-84
2022/06/02 02:27:02;;;;;;;7.57;7.07;;;;;;;8.92;94.79;101363.66;5084688;28;20176;-84
2022/06/02 02:29:47;;;;;;;7.80;7.30;;;;;;;8.90;94.37;101364.53;5078778;28;20029;-84
2022/06/02 02:32:18;;;;;;;7.73;7.27;;;;;;;8.88;95.04;101364.53;5078398;28;20027;-84
2022/06/02 02:35:06;;;;;;;8.00;7.50;;;;;;;8.87;94.93;101362.78;5078896;28;20322;-84
2022/06/02 02:37:49;;;;;;;8.15;7.47;;;;;;;8.85;94.84;101367.13;5077491;28;20015;-85
2022/06/02 02:40:30;;;;;;;8.20;7.68;;;;;;;8.85;94.69;101364.53;5078482;28;20031;-84
2022/06/02 02:43:21;;;;;;;8.85;8.10;;;;;;;8.81;94.13;101368.00;5078739;28;20061;-85
2022/06/02 02:46:10;;;;;;;7.75;7.25;;;;;;;8.82;94.29;101366.25;5069071;28;20127;-84
2022/06/02 02:48:57;;;;;;;8.23;7.72;;;;;;;8.77;94.67;101364.50;5078368;28;20043;-84
2022/06/02 02:51:42;;;;;;;9.77;8.93;;;;;;;8.75;95.14;101362.75;5078289;28;20049;-84
2022/06/02 02:54:17;;;;;;;8.40;7.80;;;;;;;8.76;94.57;101370.56;5113742;28;20031;-82
2022/06/02 02:57:20;;;;;;;9.00;8.35;;;;;;;8.72;93.97;101370.59;5078366;28;20081;-84
2022/06/02 02:59:48;;;;;;;8.55;7.80;;;;;;;8.71;94.10;101367.13;5095134;28;20034;-84
2022/06/02 03:02:29;;;;;;;9.40;8.70;;;;;;;8.71;94.39;101374.03;5113589;28;20480;-85
2022/06/02 03:05:16;;;;;;;9.48;8.63;;;;;;;8.70;94.70;101375.78;5078429;28;20110;-84
2022/06/02 03:07:42;;;;;;;9.88;8.98;;;;;;;8.70;94.85;101373.19;5096950;28;20055;-85
2022/06/02 03:10:17;;;;;;;10.02;9.23;;;;;;;8.70;95.06;101372.28;5082075;28;20023;-84
2022/06/02 03:12:52;;;;;;;11.77;10.75;;;;;;;8.71;94.96;101371.44;5082245;28;20023;-84
2022/06/02 03:15:20;;;;;;;12.35;10.90;;;;;;;8.71;95.22;101367.13;5099267;28;20048;-84
2022/06/02 03:17:46;;;;;;;12.15;11.07;;;;;;;8.70;95.18;101365.38;5098815;28;20035;-84
2022/06/02 03:20:34;;;;;;;11.98;10.82;;;;;;;8.73;95.01;101367.97;5099009;28;20026;-85
2022/06/02 03:23:18;;;;;;;12.48;11.27;;;;;;;8.70;94.69;101374.91;5081548;28;20137;-85
2022/06/02 03:25:51;;;;;;;12.75;11.57;;;;;;;8.69;94.29;101374.03;5098270;28;20063;-84
2022/06/02 03:28:17;;;;;;;12.63;11.43;;;;;;;8.66;94.62;101381.84;5081664;28;20024;-84
2022/06/02 03:30:48;;;;;;;12.80;11.63;;;;;;;8.65;94.64;101385.31;5117354;28;20031;-84
2022/06/02 03:33:22;;;;;;;12.65;11.43;;;;;;;8.59;94.68;101388.78;5099883;28;20400;-84
2022/06/02 03:36:18;;;;;;;13.43;12.18;;;;;;;8.59;94.88;101393.13;5081180;28;20391;-84
2022/06/02 03:38:50;;;;;;;13.30;12.10;;;;;;;8.59;94.45;101394.00;5074859;28;20031;-84
2022/06/02 03:41:37;;;;;;;12.82;11.70;;;;;;;8.57;94.53;101390.50;5098491;28;20130;-84
2022/06/02 03:44:27;;;;;;;12.88;11.48;;;;;;;8.59;95.30;101390.53;5081659;28;20020;-84
2022/06/02 03:47:03;;;;;;;13.80;12.40;;;;;;;8.61;94.85;101386.19;5082165;28;20076;-84
2022/06/02 03:49:50;;;;;;;15.07;13.60;;;;;;;8.58;94.55;101397.44;5081445;28;20064;-84
2022/06/02 03:52:18;;;;;;;13.50;12.10;;;;;;;8.59;94.91;101403.53;5097635;28;20507;-84
2022/06/02 03:54:49;;;;;;;13.13;11.98;;;;;;;8.58;95.39;101401.81;5098287;28;20024;-84
2022/06/02 03:57:44;;;;;;;15.63;12.93;;;;;;;8.58;94.97;101402.66;5116250;28;20020;-81
2022/06/02 04:00:13;;;;;;;13.50;12.25;;;;;;;8.60;94.60;101406.16;5097270;28;20118;-81
2022/06/02 04:02:50;;;;;;;13.57;12.30;;;;;;;8.59;94.24;101398.34;5097832;28;20027;-82
2022/06/02 04:05:27;;;;;;;12.10;10.98;;;;;;;8.57;94.42;101406.13;5080673;28;20031;-81
2022/06/02 04:08:23;;;;;;;12.98;11.75;;;;;;;8.60;94.27;101407.88;5097186;28;20500;-81
2022/06/02 04:10:49;;;;;;;12.80;11.63;;;;;;;8.60;94.33;101405.25;5097520;28;20106;-82
2022/06/02 04:13:39;;;;;;;12.70;11.65;;;;;;;8.60;94.70;101408.75;5097256;28;20031;-82
2022/06/02 04:16:23;;;;;;;11.93;10.82;;;;;;;8.63;94.22;101413.13;5097514;28;20123;-81
2022/06/02 04:18:55;;;;;;;11.20;10.30;;;;;;;8.68;94.47;101418.31;5080231;28;20020;-81
2022/06/02 04:21:45;;;;;;;13.02;11.07;;;;;;;8.69;93.88;101412.25;5096962;28;20027;-82
2022/06/02 04:24:20;;;;;;;12.23;11.18;;;;;;;8.70;93.81;101412.25;5096508;28;20169;-81
2022/06/02 04:27:08;;;;;;;11.40;10.20;;;;;;;8.74;94.67;101413.13;5080176;28;20489;-82
2022/06/02 04:30:00;;;;;;;11.15;10.05;;;;;;;8.77;94.30;101423.56;5080914;28;20054;-84
2022/06/02 04:33:08;;;;;;;10.75;9.90;;;;;;;8.81;93.13;101422.72;5080281;28;20027;-84
2022/06/02 04:36:04;;;;;;;12.00;9.50;;;;;;;8.83;93.28;101422.72;5097406;28;20485;-84
2022/06/02 04:38:53;;;;;;;10.43;9.63;;;;;;;8.83;93.13;101431.38;5080393;28;20370;-84
2022/06/02 04:41:46;;;;;;;10.82;9.73;;;;;;;8.86;93.70;101436.63;5097671;28;20418;-84
2022/06/02 04:44:32;;;;;;;10.77;9.65;;;;;;;8.89;93.25;101449.66;5116241;28;20031;-84
2022/06/02 04:47:00;;;;;;;10.68;9.88;;;;;;;8.93;92.23;101451.41;5116083;28;20027;-84
2022/06/02 04:50:09;;;;;;;11.02;9.90;;;;;;;8.94;92.56;101445.34;5080908;28;20118;-83
2022/06/02 04:52:53;;;;;;;10.68;9.82;;;;;;;8.96;91.70;101456.63;5081217;28;20373;-84
2022/06/02 04:55:18;;;;;;;8.93;8.30;;;;;;;9.00;91.89;101456.59;5097688;28;20164;-84
2022/06/02 04:58:04;;;;;;;9.65;8.88;;;;;;;9.03;91.48;101467.06;5097254;28;20041;-84
2022/06/02 05:00:51;;;;;;;9.82;8.93;;;;;;;9.02;91.89;101460.09;5081584;28;20024;-84
2022/06/02 05:03:23;;;;;;;10.20;9.30;;;;;;;9.05;91.53;101467.91;5083224;28;20456;-84
2022/06/02 05:05:55;;;;;;;10.32;9.45;;;;;;;9.06;91.71;101467.06;5083382;28;20561;-84
2022/06/02 05:08:49;;;;;;;10.15;9.35;;;;;;;9.09;91.68;101464.47;5099832;28;20384;-84
2022/06/02 05:11:17;;;;;;;10.10;9.15;;;;;;;9.11;91.58;101465.34;5099760;28;20043;-84
2022/06/02 05:13:55;;;;;;;9.13;8.23;;;;;;;9.19;90.22;101466.22;5098853;28;20023;-84
2022/06/02 05:16:20;;;;;;;8.65;8.00;;;;;;;9.21;90.82;101467.09;5082831;28;20026;-84
2022/06/02 05:19:12;;;;;;;9.07;8.32;;;;;;;9.21;91.19;101467.09;5118491;28;20118;-84
2022/06/02 05:22:03;;;;;;;9.05;8.15;;;;;;;9.20;90.71;101465.34;5082376;28;20027;-82
2022/06/02 05:24:37;;;;;;;8.20;7.47;;;;;;;9.17;90.11;101470.56;5098558;28;20027;-84
2022/06/02 05:27:25;;;;;;;8.38;7.65;;;;;;;9.13;90.51;101472.31;5117085;28;20384;-84
2022/06/02 05:30:09;;;;;;;8.82;7.78;;;;;;;9.14;90.02;101475.78;5081825;28;20032;-85
2022/06/02 05:32:37;;;;;;;7.93;7.23;;;;;;;9.13;89.37;101474.91;5097100;28;20110;-82
2022/06/02 05:35:16;;;;;;;7.82;7.13;;;;;;;9.13;90.67;101468.81;5096489;28;20072;-84
2022/06/02 05:37:51;;;;;;;7.72;7.05;;;;;;;9.15;90.24;101482.72;5096264;28;20012;-84
2022/06/02 05:40:37;;;;;;;8.30;6.38;;;;;;;9.24;88.70;101482.75;5096691;28;20114;-84
2022/06/02 05:43:25;;;;;;;6.38;5.80;;;;;;;9.23;90.28;101483.63;5080235;28;20032;-84
2022/06/02 05:46:03;;;;;;;6.93;5.90;;;;;;;9.28;89.90;101489.72;5079991;28;20027;-84
2022/06/02 05:48:46;;;;;;;6.10;5.70;;;;;;;9.33;89.87;101500.13;5096439;28;20076;-84
2022/06/02 05:51:31;;;;;;;6.45;5.82;;;;;;;9.42;89.57;101497.56;5096192;28;20444;-84
2022/06/02 05:54:05;;;;;;;5.38;5.07;;;;;;;9.52;89.11;101503.66;5095962;28;20030;-84
2022/06/02 05:57:00;;;;;;;5.65;5.22;;;;;;;9.61;88.47;101528.84;5096520;28;20039;-84
2022/06/02 05:59:38;;;;;;;5.53;5.18;;;;;;;9.71;88.06;101503.66;5058367;28;20062;-84
2022/06/02 06:02:51;;;;;;;5.68;5.28;;;;;;;9.79;88.29;101513.22;5085787;28;20031;-84
2022/06/02 06:05:17;;;;;;;5.93;5.53;;;;;;;9.90;86.98;101514.97;5011465;28;20049;-84
2022/06/02 06:08:00;;;;;;;6.28;5.72;;;;;;;9.89;86.60;101514.09;5075199;28;20408;-84
2022/06/02 06:11:01;;;;;;;5.05;4.75;;;;;;;9.90;86.82;101518.44;5095639;28;20031;-84
2022/06/02 06:13:38;;;;;;;5.82;4.68;;;;;;;9.91;87.28;101522.81;5095982;28;20031;-85
2022/06/02 06:16:07;;;;;;;6.68;4.70;;;;;;;9.93;86.50;101523.66;5078661;28;20058;-84
2022/06/02 06:18:43;;;;;;;6.18;4.80;;;;;;;9.94;87.34;101524.53;5095575;28;20397;-84
2022/06/02 06:21:17;;;;;;;4.57;4.20;;;;;;;9.97;86.02;101528.00;5079218;28;20027;-84
2022/06/02 06:23:49;;;;;;;5.57;5.15;;;;;;;9.97;86.16;101528.00;5113785;28;20389;-84
2022/06/02 06:26:42;;;;;;;4.97;4.45;;;;;;;10.06;84.89;101528.88;5096227;28;20027;-82
2022/06/02 06:29:28;;;;;;;4.20;3.90;;;;;;;10.01;86.30;101526.28;5096537;28;20024;-84
2022/06/02 06:32:21;;;;;;;5.78;4.35;;;;;;;10.03;86.43;101526.28;5114421;28;20023;-84
2022/06/02 06:35:06;;;;;;;4.80;4.50;;;;;;;10.10;86.12;101525.38;5095524;28;20240;-84
2022/06/02 06:37:53;;;;;;;4.90;4.55;;;;;;;10.10;85.85;101533.22;5095629;28;20508;-84
2022/06/02 06:40:28;;;;;;;5.80;4.38;;;;;;;10.15;85.00;101534.09;5114400;28;20081;-84
2022/06/02 06:43:24;;;;;;;4.95;4.55;;;;;;;10.16;85.34;101546.28;5103115;28;20510;-82
2022/06/02 06:46:15;;;;;;;4.97;4.68;;;;;;;10.17;85.67;101548.03;5067416;28;20073;-84
2022/06/02 06:48:46;;;;;;;4.45;4.22;;;;;;;10.17;85.28;101537.59;5100468;28;20039;-84
2022/06/02 06:51:23;;;;;;;4.50;4.20;;;;;;;10.22;85.55;101543.63;5084072;28;20392;-84
2022/06/02 06:54:26;;;;;;;4.80;4.50;;;;;;;10.26;84.65;101548.00;5083002;28;20028;-82
2022/06/02 06:57:02;;;;;;;5.15;4.75;;;;;;;10.30;84.40;101554.94;5099824;28;20027;-84
2022/06/02 06:59:28;;;;;;;5.30;5.00;;;;;;;10.32;85.12;101555.81;5082219;28;20110;-84
2022/06/02 07:02:12;;;;;;;5.22;4.72;;;;;;;10.36;84.07;101558.47;5100047;28;20069;-85
2022/06/02 07:05:01;;;;;;;9.20;4.88;;;;;;;10.33;84.11;101564.53;5099819;28;20023;-84
2022/06/02 07:07:37;;;;;;;7.60;5.22;;;;;;;10.34;84.55;101557.56;5082491;28;20027;-83
2022/06/02 07:10:34;;;;;;;4.63;4.22;;;;;;;10.39;84.32;101569.78;5082042;28;20444;-83
2022/06/02 07:13:22;;;;;;;8.75;5.28;;;;;;;10.43;83.91;101573.25;5082099;28;20065;-83
2022/06/02 07:16:06;;;;;;;5.13;4.82;;;;;;;10.44;83.87;101564.53;5099166;28;20024;-83
2022/06/02 07:18:44;;;;;;;5.25;4.85;;;;;;;10.50;83.97;101559.31;5098438;28;20081;-83
2022/06/02 07:21:12;;;;;;;6.07;4.65;;;;;;;10.55;84.85;101573.25;5098783;28;20388;-82
2022/06/02 07:24:25;;;;;;;5.13;4.80;;;;;;;10.65;84.11;101564.50;5098654;28;20023;-82
2022/06/02 07:27:06;;;;;;;4.88;4.47;;;;;;;10.67;84.79;101568.84;5092626;28;20443;-82
2022/06/02 07:29:47;;;;;;;4.93;4.63;;;;;;;10.71;83.71;101573.19;5098474;28;20122;-82
2022/06/02 07:32:39;;;;;;;5.68;4.53;;;;;;;10.67;83.71;101572.31;5098552;28;20031;-83
2022/06/02 07:35:33;;;;;;;4.15;3.85;;;;;;;10.68;84.07;101574.06;5098256;28;20111;-82
2022/06/02 07:38:04;;;;;;;4.68;4.15;;;;;;;10.76;84.19;101582.75;5098021;28;20122;-83
2022/06/02 07:40:58;;;;;;;4.32;3.92;;;;;;;10.85;84.07;101581.84;5116157;28;20057;-82
2022/06/02 07:43:46;;;;;;;4.50;4.05;;;;;;;10.94;82.71;101591.44;5116859;28;20024;-80
2022/06/02 07:46:46;;;;;;;3.60;3.40;;;;;;;10.98;83.77;101594.00;5082085;28;20043;-83
2022/06/02 07:49:24;;;;;;;6.32;3.33;;;;;;;11.09;82.83;101587.88;5098006;28;20030;-82
2022/06/02 07:52:29;;;;;;;3.70;3.13;;;;;;;11.16;83.22;101584.34;5097888;28;20034;-83
2022/06/02 07:55:26;;;;;;;3.13;2.93;;;;;;;11.23;81.90;101586.06;5000064;28;20026;-82
2022/06/02 07:58:07;;;;;;;5.78;2.85;;;;;;;11.29;81.11;101587.81;5097513;28;20030;-82
2022/06/02 08:00:57;;;;;;;3.00;2.80;;;;;;;11.29;79.59;101591.28;5080790;28;20030;-82
2022/06/02 08:03:46;;;;;;;3.30;2.60;;;;;;;11.29;81.37;101601.75;5080675;28;20038;-82
2022/06/02 08:06:35;;;;;;;2.30;2.20;;;;;;;11.30;80.79;101600.88;5096933;28;20027;-83
2022/06/02 08:09:34;;;;;;;2.72;2.42;;;;;;;11.28;80.64;101618.31;5086727;28;20067;-82
2022/06/02 08:12:21;;;;;;;2.90;2.45;;;;;;;11.25;80.13;101613.09;5080487;28;20377;-82
2022/06/02 08:15:02;;;;;;;2.08;1.98;;;;;;;11.22;81.20;101612.22;5080277;28;20024;-81
2022/06/02 08:17:37;;;;;;;2.55;2.35;;;;;;;11.17;81.45;101614.88;5080067;28;20020;-83
2022/06/02 08:20:21;;;;;;;;;;;;;;;11.21;81.70;101616.59;5081098;28;20020;-83
2022/06/02 08:22:53;;;;;;;2.50;2.30;;;;;;;11.25;81.51;101620.94;5097455;28;20384;-81
2022/06/02 08:25:23;;;;;;;3.08;2.25;;;;;;;11.28;81.35;101622.66;5097558;28;20572;-81
2022/06/02 08:27:55;;;;;;;2.47;2.28;;;;;;;11.29;81.04;101608.72;5081217;28;20015;-81
2022/06/02 08:30:51;;;;;;;3.50;2.67;;;;;;;11.33;81.80;101624.38;5097164;28;20076;-80
2022/06/02 08:33:42;;;;;;;2.60;2.40;;;;;;;11.46;81.36;101627.78;5097239;28;20028;-80
2022/06/02 08:36:18;;;;;;;3.60;2.60;;;;;;;11.57;80.40;101632.97;5080627;28;20551;-80
2022/06/02 08:38:47;;;;;;;3.97;2.33;;;;;;;11.63;79.73;101626.84;5080503;28;20028;-79
2022/06/02 08:41:30;;;;;;;2.30;2.10;;;;;;;11.67;79.63;101632.06;5079748;28;20059;-80
2022/06/02 08:44:02;;;;;;;1.98;1.75;;;;;;;11.73;79.44;101635.53;5062852;28;20077;-80
2022/06/02 08:47:04;;;;;;;2.10;1.90;;;;;;;11.76;78.54;101636.34;5078018;28;20023;-80
2022/06/02 08:49:48;;;;;;;2.53;1.90;;;;;;;11.79;79.58;101640.72;5096206;28;20534;-82
2022/06/02 08:52:49;;;;;;;2.10;1.92;;;;;;;11.82;80.27;101635.44;5096224;28;20434;-83
2022/06/02 08:55:33;;;;;;;3.15;1.95;;;;;;;11.80;80.40;101639.84;5063797;28;20055;-82
2022/06/02 08:57:58;;;;;;;2.58;2.25;;;;;;;11.80;79.25;101639.84;5096418;28;20427;-82
2022/06/02 09:00:42;;;;;;;2.42;2.22;;;;;;;11.86;79.56;101642.41;5096043;28;20055;-83
2022/06/02 09:03:17;;;;;;;3.28;2.20;;;;;;;11.92;79.24;101639.75;5095735;28;20037;-83
2022/06/02 09:05:48;;;;;;;5.35;2.30;;;;;;;12.00;79.99;101637.13;5095990;28;20031;-82
2022/06/02 09:08:35;;;;;;;2.60;2.40;;;;;;;12.11;78.67;101648.38;5095739;28;20425;-84
2022/06/02 09:11:27;;;;;;;3.35;2.25;;;;;;;12.22;77.49;101640.44;5096024;28;20023;-82
2022/06/02 09:14:23;;;;;;;2.97;2.22;;;;;;;12.28;77.14;101645.63;5096949;28;20090;-80
2022/06/02 09:16:54;;;;;;;;;;;;;;;12.34;77.29;101640.34;5089615;28;20545;-80
2022/06/02 09:19:56;;;;;;;2.17;1.85;;;;;;;12.41;78.44;101650.78;5097104;28;19908;-80
2022/06/02 09:22:34;;;;;;;2.45;1.98;;;;;;;12.48;78.16;101653.31;5096828;28;20020;-81
2022/06/02 09:25:21;;;;;;;3.03;2.00;;;;;;;12.57;77.43;101655.00;5097557;28;20542;-81
2022/06/02 09:28:22;;;;;;;2.28;2.13;;;;;;;12.65;77.79;101661.03;5096883;28;20114;-79
2022/06/02 09:31:16;;;;;;;2.65;1.63;;;;;;;12.70;77.89;101657.50;5066283;28;20092;-81
2022/06/02 09:34:09;;;;;;;1.45;1.35;;;;;;;12.74;77.49;101659.22;5114776;28;20496;-81
2022/06/02 09:36:58;;;;;;;4.25;1.40;;;;;;;12.74;73.85;101664.47;5096114;28;20031;-81
2022/06/02 09:39:43;;;;;;;2.53;1.40;;;;;;;12.68;76.11;101668.00;5079042;28;20028;-80
2022/06/02 09:42:30;;;;;;;3.10;1.45;;;;;;;12.59;74.42;101671.56;5096447;28;20384;-81
2022/06/02 09:45:14;;;;;;;2.13;1.48;;;;;;;12.53;75.65;101676.88;5095481;28;20024;-79
2022/06/02 09:47:56;;;;;;;1.25;1.10;;;;;;;12.44;74.47;101677.81;5094058;28;20024;-79
2022/06/02 09:50:47;;;;;;;1.30;1.20;;;;;;;12.40;75.67;101677.88;5078060;28;20088;-78
2022/06/02 09:53:21;;;;;;;1.50;1.25;;;;;;;12.34;75.87;101670.94;5095204;28;20027;-81
2022/06/02 09:55:49;;;;;;;2.38;1.33;;;;;;;12.34;74.47;101676.16;5094957;28;20028;-82
2022/06/02 09:58:24;;;;;;;1.40;1.30;;;;;;;12.31;74.63;101682.28;5095057;28;20036;-78
2022/06/02 10:00:55;;;;;;;1.50;1.40;;;;;;;12.29;75.68;101684.03;5094928;28;20023;-79
2022/06/02 10:03:49;;;;;;;4.18;1.23;;;;;;;12.29;77.14;101694.53;5095105;28;20035;-78
2022/06/02 10:06:52;;;;;;;2.67;1.42;;;;;;;12.27;77.14;101691.06;5094985;28;20027;-80
2022/06/02 10:09:27;;;;;;;1.95;1.38;;;;;;;12.23;75.70;101697.19;5094742;28;20550;-81
2022/06/02 10:15:01;;;;;;;;;;;;;;;12.22;77.48;101698.06;5113631;28;20069;-81
2022/06/02 10:17:30;;;;;;;1.42;1.40;;;;;;;12.27;78.31;101705.88;5094165;28;19965;-81
2022/06/02 10:20:11;;;;;;;2.80;1.48;;;;;;;12.27;75.50;101712.00;5094835;28;20067;-80
2022/06/02 10:23:06;;;;;;;1.98;1.20;;;;;;;12.27;74.99;101717.25;5078480;28;20064;-78
2022/06/02 10:25:51;;;;;;;1.90;1.50;;;;;;;12.27;75.09;101717.25;5066410;28;20490;-80
2022/06/02 10:28:40;;;;;;;1.85;1.48;;;;;;;12.25;74.73;101713.75;5078307;28;20110;-78
2022/06/02 10:31:24;;;;;;;1.70;1.40;;;;;;;12.18;75.31;101719.94;5095344;28;20020;-79
2022/06/02 10:34:26;;;;;;;3.95;1.60;;;;;;;12.16;75.52;101719.06;5113578;28;20026;-79
2022/06/02 10:37:07;;;;;;;1.67;1.15;;;;;;;12.13;75.31;101714.75;5112963;28;20213;-78
2022/06/02 10:39:32;;;;;;;1.60;1.50;;;;;;;12.13;76.61;101719.97;5094752;28;20023;-81
2022/06/02 10:42:29;;;;;;;1.50;1.40;;;;;;;12.15;75.94;101723.44;5112984;28;20034;-82
2022/06/02 10:45:17;;;;;;;2.85;1.40;;;;;;;12.16;75.83;101727.81;5112899;28;20493;-81
2022/06/02 10:48:27;;;;;;;4.47;1.65;;;;;;;12.22;75.41;101718.16;5094635;28;20072;-82
2022/06/02 10:51:19;;;;;;;5.47;1.60;;;;;;;12.30;74.74;101714.59;5034487;28;20029;-80
2022/06/02 10:54:00;;;;;;;2.10;1.67;;;;;;;12.46;74.86;101730.19;5092723;28;20032;-82
2022/06/02 10:57:20;;;;;;;2.63;1.38;;;;;;;12.62;74.03;101721.34;5094989;28;20516;-82
2022/06/02 11:00:04;;;;;;;1.50;1.40;;;;;;;12.82;72.92;101720.31;5013769;28;20120;-79
2022/06/02 11:03:08;;;;;;;2.63;1.58;;;;;;;12.99;72.41;101717.50;5079325;28;20028;-80
2022/06/02 11:06:01;;;;;;;1.77;1.50;;;;;;;13.15;72.23;101720.84;5096241;28;20023;-79
2022/06/02 11:09:04;;;;;;;3.60;1.63;;;;;;;13.33;70.87;101706.66;5095387;28;20023;-79
2022/06/02 11:11:42;;;;;;;4.25;1.50;;;;;;;13.42;69.47;101727.59;5095617;28;20043;-80
2022/06/02 11:14:32;;;;;;;3.10;1.25;;;;;;;13.46;70.05;101718.78;5095126;28;20476;-80
2022/06/02 11:17:31;;;;;;;1.88;1.45;;;;;;;13.42;69.61;101721.47;5095032;28;20015;-79
2022/06/02 11:20:26;;;;;;;2.13;1.38;;;;;;;13.52;70.45;101718.72;5114064;28;20232;-79
2022/06/02 11:23:19;;;;;;;1.50;1.23;;;;;;;13.53;70.38;101724.84;5092986;28;20040;-79
2022/06/02 11:26:09;;;;;;;3.58;1.50;;;;;;;13.53;71.51;101730.94;5096279;28;20028;-79
2022/06/02 11:28:51;;;;;;;4.65;1.42;;;;;;;13.58;69.94;101730.91;5097211;28;20499;-81
2022/06/02 11:31:24;;;;;;;3.88;1.50;;;;;;;13.57;71.12;101725.69;5099980;28;20031;-81
2022/06/02 11:34:14;;;;;;;4.20;1.75;;;;;;;13.50;71.09;101740.63;5082545;28;20046;-80
2022/06/02 11:37:01;;;;;;;2.75;1.40;;;;;;;13.48;70.82;101734.50;5099591;28;20024;-81
2022/06/02 11:39:53;;;;;;;2.28;1.65;;;;;;;13.47;71.37;101735.38;5098869;28;20509;-80
2022/06/02 11:42:42;;;;;;;4.18;1.50;;;;;;;13.37;70.85;101736.41;5081940;28;20024;-81
2022/06/02 11:45:56;;;;;;;1.70;1.60;;;;;;;13.30;71.50;101732.94;5098986;28;20049;-81
2022/06/02 11:48:45;;;;;;;4.03;1.85;;;;;;;13.24;71.11;101747.00;5037248;28;20029;-78
2022/06/02 11:51:32;;;;;;;2.67;1.70;;;;;;;13.24;71.10;101744.38;5054656;28;20335;-81
2022/06/02 11:54:04;;;;;;;1.70;1.60;;;;;;;13.30;72.49;101740.81;5103186;28;20494;-79
2022/06/02 11:56:46;;;;;;;2.00;1.50;;;;;;;13.35;72.56;101732.03;5099211;28;20015;-80
2022/06/02 11:59:59;;;;;;;1.88;1.45;;;;;;;13.39;72.77;101742.47;5082403;28;20077;-79
2022/06/02 12:02:39;;;;;;;2.58;1.60;;;;;;;13.49;70.98;101741.50;5090730;28;20036;-81
2022/06/02 12:05:14;;;;;;;1.80;1.50;;;;;;;13.61;71.60;101732.63;5081846;28;20511;-80
2022/06/02 12:08:06;;;;;;;3.00;1.70;;;;;;;13.80;70.45;101733.25;5095087;28;20028;-80
2022/06/02 12:10:44;;;;;;;1.83;1.50;;;;;;;13.89;71.21;101733.13;5078411;28;20027;-80
2022/06/02 12:13:34;;;;;;;1.63;1.52;;;;;;;13.95;68.00;101735.66;5097195;28;20066;-81
2022/06/02 12:16:15;;;;;;;1.88;1.27;;;;;;;14.11;69.47;101723.19;5116593;28;20026;-80
2022/06/02 12:19:25;;;;;;;1.95;1.52;;;;;;;14.36;69.14;101723.69;5098385;28;20096;-82
2022/06/02 12:22:17;;;;;;;4.65;1.50;;;;;;;14.59;68.95;101711.94;5099084;28;20020;-80
2022/06/02 12:25:01;;;;;;;1.88;1.73;;;;;;;14.80;66.65;101723.00;5098503;28;20066;-80
2022/06/02 12:27:47;;;;;;;3.03;1.42;;;;;;;15.00;65.93;101715.63;5117254;28;20262;-81
2022/06/02 12:30:19;;;;;;;2.42;1.58;;;;;;;15.02;65.81;101729.63;5101620;28;20036;-81
2022/06/02 12:33:11;;;;;;;3.72;1.80;;;;;;;14.99;66.72;101724.41;5103199;28;20475;-81
2022/06/02 12:36:01;;;;;;;2.58;1.55;;;;;;;14.96;65.63;101729.72;5112832;28;20039;-81
2022/06/02 12:38:50;;;;;;;2.20;1.50;;;;;;;15.06;65.68;101732.19;5102216;28;20075;-81
2022/06/02 12:41:34;;;;;;;1.60;1.50;;;;;;;15.12;67.00;101732.06;5084527;28;20077;-81
2022/06/02 12:44:15;;;;;;;2.15;1.35;;;;;;;15.12;65.37;101734.69;5103883;28;20092;-81
2022/06/02 12:46:52;;;;;;;2.85;1.70;;;;;;;15.11;64.53;101727.72;5102474;28;20120;-78
2022/06/02 12:49:21;;;;;;;4.18;1.70;;;;;;;14.99;63.83;101741.97;5100686;28;20076;-78
2022/06/02 12:51:57;;;;;;;2.22;1.50;;;;;;;14.91;64.79;101742.09;5101719;28;20031;-78
2022/06/02 12:54:51;;;;;;;1.73;1.50;;;;;;;14.81;64.52;101730.00;5085152;28;20506;-78
2022/06/02 12:57:46;;;;;;;2.30;1.60;;;;;;;14.73;65.11;101727.50;5102575;28;20020;-78